< < Back
Terminal Aerodrome Forecast


Current Version              Previous Versions:   1  2  3  4  5  6  7  8  9  

Terminal Aerodrome Forecast

150
FTUS42 KGSP 220500
TAFHKY
TAF
KHKY 220531Z 2206/2306 04005KT P6SM SCT015
     FM220900 05005KT P6SM BKN011
     FM221100 05006KT P6SM OVC007
     FM221400 06006KT P6SM OVC012
     FM221800 06006KT P6SM BKN035 PROB30 2218/2223 4SM TSRA
      BKN025CB=



Latest METAR

779
SAUS70 KWBC 220700 RRJ
MTRHKY
METAR KHKY 220653Z AUTO 00000KT 9SM OVC018 22/21 A3015 RMK AO2 SLP190
T02170206 TSNO


USA.gov is the U.S. government's official web portal to all federal, state and local government web resources and services.